TimeEST,TemperatureF,Dew PointF,Humidity,Sea Level PressureIn,VisibilityMPH,Wind Direction,Wind SpeedMPH,Gust SpeedMPH,PrecipitationIn,Events,Conditions,WindDirDegrees,DateUTC
12:13 AM,30.0,21.2,70,30.05,10.0,WNW,8.1,16.1,N/A,,Overcast,300,2012-12-30 05:13:00
12:33 AM,30.0,21.2,70,30.05,10.0,NW,9.2,-,N/A,,Overcast,310,2012-12-30 05:33:00
12:53 AM,29.8,21.2,70,30.05,10.0,WNW,6.9,-,N/A,,Overcast,290,2012-12-30 05:53:00
1:13 AM,30.0,22.6,74,30.05,10.0,WNW,8.1,-,N/A,,Overcast,300,2012-12-30 06:13:00
1:34 AM,30.0,22.6,74,30.05,10.0,WNW,11.5,-,N/A,,Overcast,300,2012-12-30 06:34:00
1:54 AM,30.0,21.9,72,30.06,10.0,WNW,12.7,-,N/A,,Overcast,300,2012-12-30 06:54:00
2:14 AM,29.3,21.9,74,30.07,10.0,West,9.2,20.7,N/A,,Overcast,280,2012-12-30 07:14:00
2:34 AM,29.1,21.2,72,30.07,10.0,WNW,11.5,20.7,N/A,,Overcast,300,2012-12-30 07:34:00
2:54 AM,28.9,20.3,70,30.08,10.0,WNW,11.5,-,N/A,,Overcast,290,2012-12-30 07:54:00
3:14 AM,28.9,20.1,70,30.09,10.0,WNW,10.4,-,N/A,,Overcast,290,2012-12-30 08:14:00
3:34 AM,28.4,20.5,72,30.10,10.0,West,9.2,-,N/A,,Overcast,280,2012-12-30 08:34:00
3:54 AM,28.2,20.3,72,30.10,10.0,West,8.1,-,N/A,,Overcast,280,2012-12-30 08:54:00
4:15 AM,27.9,20.3,73,30.10,10.0,West,8.1,16.1,N/A,,Overcast,280,2012-12-30 09:15:00
4:35 AM,27.5,20.5,75,30.10,10.0,West,10.4,-,N/A,Snow,Light Snow,280,2012-12-30 09:35:00
4:55 AM,27.5,20.8,76,30.10,10.0,West,9.2,-,N/A,,Overcast,270,2012-12-30 09:55:00
5:15 AM,27.5,20.3,74,30.11,10.0,West,5.8,-,N/A,,Overcast,280,2012-12-30 10:15:00
5:35 AM,27.3,20.3,75,30.11,10.0,West,8.1,-,N/A,,Overcast,270,2012-12-30 10:35:00
5:55 AM,27.0,20.3,76,30.13,10.0,WSW,10.4,-,N/A,,Overcast,250,2012-12-30 10:55:00
6:15 AM,26.4,20.1,77,30.14,10.0,West,8.1,-,N/A,,Overcast,270,2012-12-30 11:15:00
6:35 AM,26.2,19.9,77,30.14,10.0,West,8.1,-,N/A,,Overcast,280,2012-12-30 11:35:00
6:56 AM,25.7,19.4,77,30.15,10.0,West,10.4,-,N/A,,Overcast,280,2012-12-30 11:56:00
7:36 AM,25.7,20.1,79,30.16,10.0,West,5.8,9.2,N/A,,Overcast,260,2012-12-30 12:36:00
7:56 AM,25.7,20.3,80,30.16,10.0,West,6.9,-,N/A,,Overcast,280,2012-12-30 12:56:00
8:16 AM,25.7,20.3,80,30.16,10.0,WSW,5.8,-,N/A,,Overcast,250,2012-12-30 13:16:00
8:36 AM,25.7,20.3,80,30.16,10.0,WNW,8.1,-,N/A,,Overcast,290,2012-12-30 13:36:00
8:51 AM,25.5,19.9,79,30.17,10.0,West,8.1,-,N/A,,Overcast,270,2012-12-30 13:51:00
9:11 AM,25.2,19.4,79,30.18,10.0,West,10.4,-,N/A,,Overcast,280,2012-12-30 14:11:00
9:32 AM,24.8,18.9,78,30.17,10.0,West,5.8,-,N/A,,Overcast,280,2012-12-30 14:32:00
9:52 AM,24.8,19.2,79,30.18,10.0,West,3.5,-,N/A,,Overcast,270,2012-12-30 14:52:00
10:12 AM,24.8,19.4,80,30.18,10.0,WSW,5.8,-,N/A,,Overcast,250,2012-12-30 15:12:00
10:32 AM,25.2,19.4,79,30.19,10.0,West,6.9,-,N/A,,Overcast,270,2012-12-30 15:32:00
10:52 AM,25.2,19.0,78,30.20,10.0,WSW,4.6,-,N/A,,Overcast,250,2012-12-30 15:52:00
11:12 AM,25.2,19.2,78,30.20,10.0,WSW,6.9,-,N/A,,Overcast,250,2012-12-30 16:12:00
11:32 AM,25.5,19.4,78,30.19,10.0,West,6.9,-,N/A,,Overcast,260,2012-12-30 16:32:00
11:52 AM,25.5,19.4,78,30.19,10.0,WSW,5.8,-,N/A,,Overcast,240,2012-12-30 16:52:00
12:13 PM,25.7,19.2,76,30.19,10.0,WSW,6.9,17.3,N/A,,Overcast,250,2012-12-30 17:13:00
12:33 PM,25.3,19.6,79,30.18,10.0,WSW,6.9,16.1,N/A,,Overcast,250,2012-12-30 17:33:00
12:53 PM,25.2,18.7,76,30.17,10.0,SW,9.2,-,N/A,,Overcast,230,2012-12-30 17:53:00
1:13 PM,25.2,19.0,78,30.17,10.0,WSW,8.1,-,N/A,,Overcast,240,2012-12-30 18:13:00
1:33 PM,25.3,19.0,77,30.17,10.0,WSW,9.2,16.1,N/A,,Overcast,240,2012-12-30 18:33:00
1:53 PM,25.5,19.4,78,30.17,10.0,SW,8.1,-,N/A,,Overcast,220,2012-12-30 18:53:00
2:14 PM,24.8,19.8,81,30.16,10.0,SW,8.1,18.4,N/A,,Overcast,220,2012-12-30 19:14:00
2:34 PM,24.8,19.6,81,30.15,10.0,SW,9.2,-,N/A,,Overcast,220,2012-12-30 19:34:00
2:54 PM,24.6,19.2,80,30.15,10.0,SW,9.2,-,N/A,,Overcast,230,2012-12-30 19:54:00
3:14 PM,24.8,19.4,80,30.15,10.0,SW,9.2,-,N/A,,Overcast,230,2012-12-30 20:14:00
3:34 PM,25.2,19.9,81,30.15,10.0,SSW,6.9,-,N/A,,Overcast,210,2012-12-30 20:34:00
3:54 PM,25.2,19.4,79,30.15,10.0,SSW,10.4,18.4,N/A,,Overcast,210,2012-12-30 20:54:00
4:14 PM,25.5,20.3,81,30.14,10.0,SSW,10.4,-,N/A,,Overcast,210,2012-12-30 21:14:00
4:34 PM,25.7,19.9,79,30.12,10.0,SSW,9.2,16.1,N/A,,Mostly Cloudy,200,2012-12-30 21:34:00
4:54 PM,25.5,19.8,79,30.12,10.0,SSW,9.2,-,N/A,,Mostly Cloudy,200,2012-12-30 21:54:00
5:14 PM,26.2,21.0,81,30.12,10.0,SSW,11.5,16.1,N/A,,Overcast,210,2012-12-30 22:14:00
5:40 PM,26.6,21.7,82,30.12,10.0,SW,8.1,17.3,N/A,,Overcast,220,2012-12-30 22:40:00
6:00 PM,27.1,21.9,81,30.12,10.0,SW,11.5,18.4,N/A,,Overcast,230,2012-12-30 23:00:00
6:20 PM,27.5,22.1,80,30.12,10.0,SSW,11.5,16.1,N/A,,Overcast,210,2012-12-30 23:20:00
6:35 PM,28.0,21.9,78,30.11,10.0,SSW,10.4,16.1,N/A,,Overcast,210,2012-12-30 23:35:00
6:55 PM,28.0,22.1,78,30.11,10.0,SSW,10.4,16.1,N/A,,Mostly Cloudy,210,2012-12-30 23:55:00
7:15 PM,28.4,22.6,79,30.11,10.0,SSW,12.7,17.3,N/A,,Overcast,210,2012-12-31 00:15:00
7:35 PM,28.8,23.0,79,30.10,10.0,SSW,8.1,-,N/A,,Overcast,200,2012-12-31 00:35:00
7:55 PM,29.3,23.9,80,30.10,10.0,SW,10.4,17.3,N/A,,Overcast,220,2012-12-31 00:55:00
8:16 PM,30.0,23.9,78,30.09,10.0,SSW,11.5,19.6,N/A,,Overcast,210,2012-12-31 01:16:00
8:36 PM,30.2,23.7,77,30.08,10.0,SSW,6.9,17.3,N/A,,Mostly Cloudy,210,2012-12-31 01:36:00
8:56 PM,27.1,22.1,81,30.08,10.0,SE,8.1,-,N/A,,Mostly Cloudy,140,2012-12-31 01:56:00
9:16 PM,26.8,22.3,83,30.06,10.0,South,6.9,-,N/A,,Mostly Cloudy,170,2012-12-31 02:16:00
9:36 PM,27.5,22.8,83,30.05,10.0,South,6.9,-,N/A,,Overcast,170,2012-12-31 02:36:00
9:56 PM,27.5,23.0,83,30.04,10.0,SSE,8.1,-,N/A,,Overcast,150,2012-12-31 02:56:00
10:11 PM,27.3,23.0,84,30.03,10.0,SSE,9.2,-,N/A,,Overcast,150,2012-12-31 03:11:00
10:31 PM,27.1,23.0,84,30.01,10.0,SSE,5.8,-,N/A,,Overcast,150,2012-12-31 03:31:00
10:51 PM,27.5,23.5,85,30.01,10.0,SSE,5.8,-,N/A,,Overcast,160,2012-12-31 03:51:00
11:12 PM,27.9,23.7,84,30.01,10.0,SSE,8.1,-,N/A,,Overcast,150,2012-12-31 04:12:00
11:32 PM,28.4,24.4,85,30.00,10.0,SSE,6.9,-,N/A,,Overcast,160,2012-12-31 04:32:00
11:52 PM,29.5,25.3,85,29.99,10.0,SSE,6.9,-,N/A,,Overcast,160,2012-12-31 04:52:00